Time;durP1;ratioP1;P1;durP2;ratioP2;P2;SDS_P1;SDS_P2;PMS_P1;PMS_P2;Temp;Humidity;BMP_temperature;BMP_pressure;BME280_temperature;BME280_humidity;BME280_pressure;Samples;Min_cycle;Max_cycle;Signal;HPM_P1;HPM_P2
2023/10/05 05:57:55;;;;;;;;;7.00;5.75;;;;;21.46;48.19;102214.19;5084776;27;45354;-65
2023/10/05 06:00:21;;;;;;;;;3.25;3.25;;;;;21.85;46.93;102212.44;5069539;28;45361;-54
2023/10/05 06:02:46;;;;;;;;;4.75;4.75;;;;;22.05;46.45;102221.97;5071788;28;45650;-55
2023/10/05 06:05:12;;;;;;;;;5.50;5.50;;;;;22.23;46.01;102221.53;5073293;28;45622;-55
2023/10/05 06:07:41;;;;;;;;;4.00;4.00;;;;;22.40;45.45;102228.53;5073902;27;45282;-54
2023/10/05 06:10:14;;;;;;;;;5.75;4.00;;;;;22.63;44.89;102224.09;5073966;27;45403;-52
2023/10/05 06:12:41;;;;;;;;;4.00;4.00;;;;;22.78;44.35;102235.84;5073547;27;45480;-54
2023/10/05 06:15:09;;;;;;;;;3.50;3.00;;;;;22.75;44.65;102231.47;5073567;28;46048;-56
2023/10/05 06:17:36;;;;;;;;;5.25;5.00;;;;;22.98;44.49;102238.81;5073493;27;46171;-54
2023/10/05 06:20:13;;;;;;;;;6.00;4.75;;;;;22.99;43.73;102237.84;5075031;27;45348;-54
2023/10/05 06:22:39;;;;;;;;;7.00;4.25;;;;;23.10;43.92;102241.66;5074301;27;45325;-60
2023/10/05 06:25:05;;;;;;;;;7.75;4.50;;;;;23.12;43.63;102239.69;5067077;27;45691;-62
2023/10/05 06:27:30;;;;;;;;;6.50;6.50;;;;;23.09;43.44;102240.78;5074647;28;46440;-60
2023/10/05 06:29:55;;;;;;;;;6.50;5.00;;;;;23.04;43.65;102240.25;5074154;28;62647;-59
2023/10/05 06:32:20;;;;;;;;;6.75;6.00;;;;;23.07;43.82;102230.91;5074219;28;55169;-60
2023/10/05 06:34:48;;;;;;;;;8.25;6.00;;;;;23.26;43.31;102218.47;5074423;28;49302;-60
2023/10/05 06:37:13;;;;;;;;;6.00;6.00;;;;;23.29;43.90;102233.81;5074891;27;47138;-60
2023/10/05 06:39:39;;;;;;;;;5.25;4.50;;;;;23.47;43.09;102215.97;5074651;27;45259;-60
2023/10/05 06:42:06;;;;;;;;;6.00;6.00;;;;;23.57;42.93;102218.88;5074939;27;45402;-61
2023/10/05 06:44:33;;;;;;;;;7.75;5.00;;;;;23.51;42.52;102233.06;5074582;27;46244;-60
2023/10/05 06:46:59;;;;;;;;;8.50;6.50;;;;;23.57;42.90;102227.97;5074466;27;45346;-60
2023/10/05 06:49:26;;;;;;;;;5.25;5.25;;;;;23.64;43.16;102244.84;5066751;27;45484;-60
2023/10/05 06:51:52;;;;;;;;;8.00;5.75;;;;;23.74;42.55;102256.78;5074326;27;45482;-60
2023/10/05 06:54:17;;;;;;;;;4.50;3.50;;;;;23.79;42.61;102246.38;5074208;28;57017;-59
2023/10/05 06:56:48;;;;;;;;;8.50;8.50;;;;;23.75;42.52;102247.59;5060730;27;46124;-60
2023/10/05 06:59:14;;;;;;;;;5.00;5.00;;;;;23.88;42.56;102250.25;5058227;28;45476;-60
2023/10/05 07:01:39;;;;;;;;;7.00;7.00;;;;;23.97;42.24;102244.06;5060449;28;45840;-60
2023/10/05 07:04:07;;;;;;;;;8.50;6.50;;;;;24.07;42.17;102245.94;5059765;28;63405;-60
2023/10/05 07:06:33;;;;;;;;;8.75;7.25;;;;;24.04;42.16;102240.72;5060543;28;46588;-60
2023/10/05 07:08:59;;;;;;;;;7.00;6.75;;;;;24.05;41.79;102247.06;5060465;28;45441;-58
2023/10/05 07:11:25;;;;;;;;;8.75;5.50;;;;;24.00;41.69;102252.03;5060471;28;45291;-59
2023/10/05 07:13:51;;;;;;;;;8.25;8.25;;;;;23.99;41.87;102261.22;5060693;28;45349;-59
2023/10/05 07:16:17;;;;;;;;;6.25;6.00;;;;;23.99;41.33;102264.84;5049139;28;46016;-59
2023/10/05 07:18:42;;;;;;;;;10.00;10.00;;;;;24.01;41.64;102260.13;5050297;28;45312;-59
2023/10/05 07:21:08;;;;;;;;;7.00;7.00;;;;;24.10;41.48;102274.97;5060928;28;45469;-59
2023/10/05 07:23:38;;;;;;;;;4.75;4.75;;;;;24.16;41.47;102262.69;5048123;28;45254;-59
2023/10/05 07:26:04;;;;;;;;;9.25;6.75;;;;;24.12;41.43;102265.66;5060036;28;45479;-61
2023/10/05 07:28:32;;;;;;;;;10.25;10.25;;;;;24.07;41.82;102269.75;5059781;28;45304;-61
2023/10/05 07:30:59;;;;;;;;;11.25;8.75;;;;;24.06;42.18;102257.91;5059006;28;45347;-60
2023/10/05 07:33:24;;;;;;;;;5.25;5.25;;;;;24.18;41.53;102257.91;5058808;28;45561;-60
2023/10/05 07:35:50;;;;;;;;;8.75;7.00;;;;;24.38;41.45;102260.00;5060064;28;46180;-60
2023/10/05 07:38:15;;;;;;;;;10.25;7.50;;;;;24.52;40.51;102263.38;5060319;28;45310;-59
2023/10/05 07:40:42;;;;;;;;;12.50;9.00;;;;;24.58;40.56;102270.25;5060844;28;45395;-60
2023/10/05 07:43:08;;;;;;;;;6.50;6.50;;;;;24.76;40.36;102252.25;5060511;28;45337;-59
2023/10/05 07:45:33;;;;;;;;;5.00;3.75;;;;;24.92;40.17;102262.91;5060372;28;47159;-60
2023/10/05 07:48:00;;;;;;;;;9.00;7.25;;;;;25.04;39.56;102275.59;5060067;28;45369;-60
2023/10/05 07:50:26;;;;;;;;;12.00;8.75;;;;;25.10;40.10;102286.06;5047404;28;45488;-60
2023/10/05 07:52:51;;;;;;;;;7.50;7.50;;;;;25.20;39.35;102291.66;5060425;28;45356;-60
2023/10/05 07:55:17;;;;;;;;;10.75;8.75;;;;;25.14;39.61;102286.69;5060299;28;46358;-60
2023/10/05 07:57:43;;;;;;;;;7.00;7.00;;;;;25.27;40.17;102284.66;5060165;28;45128;-60
2023/10/05 08:00:12;;;;;;;;;12.75;9.00;;;;;25.39;40.03;102280.91;5060354;28;45161;-60
2023/10/05 08:02:38;;;;;;;;;10.00;9.25;;;;;25.40;38.74;102265.28;5059820;28;45465;-59
2023/10/05 08:05:05;;;;;;;;;5.00;5.00;;;;;25.41;39.05;102247.81;5060228;28;45446;-60
2023/10/05 08:07:31;;;;;;;;;6.75;6.75;;;;;25.41;39.13;102262.44;5059585;28;45314;-59
2023/10/05 08:09:56;;;;;;;;;6.25;6.25;;;;;25.46;38.98;102287.59;5059336;28;45240;-60
2023/10/05 08:12:23;;;;;;;;;7.25;6.00;;;;;25.49;39.08;102289.22;5059988;28;45350;-61
2023/10/05 08:14:48;;;;;;;;;3.25;3.25;;;;;25.53;38.85;102276.97;5060100;28;47004;-60
2023/10/05 08:17:17;;;;;;;;;5.25;5.25;;;;;25.64;38.69;102290.72;5059684;28;45301;-60
2023/10/05 08:19:42;;;;;;;;;5.00;5.00;;;;;25.71;39.25;102302.91;5059633;28;45568;-61
2023/10/05 08:22:09;;;;;;;;;8.75;7.25;;;;;25.72;38.79;102309.28;5058893;28;45558;-60
2023/10/05 08:24:35;;;;;;;;;5.25;5.25;;;;;25.81;38.86;102305.75;5060052;28;46294;-60
2023/10/05 08:27:00;;;;;;;;;6.25;4.50;;;;;25.90;37.84;102311.34;5059833;28;45268;-59
2023/10/05 08:29:27;;;;;;;;;7.25;5.75;;;;;25.95;38.00;102317.28;5059903;28;47869;-59
2023/10/05 08:31:53;;;;;;;;;7.25;6.25;;;;;25.95;37.86;102336.53;5057101;28;45864;-60
2023/10/05 08:34:21;;;;;;;;;9.00;9.00;;;;;25.78;38.12;102339.84;5058299;28;46023;-60
2023/10/05 08:36:53;;;;;;;;;6.00;6.00;;;;;25.70;38.21;102356.09;5058363;28;45437;-60
2023/10/05 08:39:24;;;;;;;;;9.75;8.50;;;;;25.85;38.17;102365.81;5059589;28;45330;-60
2023/10/05 08:41:49;;;;;;;;;7.50;6.25;;;;;25.79;38.53;102343.47;5059225;28;45343;-60
2023/10/05 08:44:27;;;;;;;;;7.25;6.75;;;;;25.92;38.65;102328.56;5059450;28;46048;-59
2023/10/05 08:46:56;;;;;;;;;6.00;4.50;;;;;25.95;38.44;102328.28;5059189;28;45402;-60
2023/10/05 08:49:23;;;;;;;;;6.50;5.00;;;;;26.10;38.28;102330.75;5047958;28;45260;-60
2023/10/05 08:51:49;;;;;;;;;6.00;6.00;;;;;26.09;37.59;102335.38;5057035;28;45456;-60
2023/10/05 08:54:15;;;;;;;;;9.00;6.00;;;;;26.17;37.67;102353.94;5059016;28;45254;-60
2023/10/05 08:56:45;;;;;;;;;7.00;6.00;;;;;26.09;37.59;102351.84;5058927;28;45422;-59
2023/10/05 08:59:14;;;;;;;;;4.25;3.25;;;;;26.11;37.48;102358.09;5058933;28;45433;-60
2023/10/05 09:01:46;;;;;;;;;6.25;5.00;;;;;25.98;37.15;102333.53;5058700;28;45397;-60
2023/10/05 09:06:49;;;;;;;;;3.75;3.75;;;;;26.14;37.57;102340.44;5058923;28;45320;-61
2023/10/05 09:09:15;;;;;;;;;3.75;2.00;;;;;26.24;37.48;102352.41;5058735;28;45335;-60
2023/10/05 09:11:41;;;;;;;;;3.00;2.25;;;;;26.32;37.07;102355.38;5059177;28;45325;-60
2023/10/05 09:14:12;;;;;;;;;4.75;2.75;;;;;26.36;37.00;102332.13;5058736;28;45475;-59
2023/10/05 09:16:42;;;;;;;;;3.00;3.00;;;;;26.41;37.19;102323.47;5058600;28;45393;-61
2023/10/05 09:19:15;;;;;;;;;6.00;3.50;;;;;26.50;36.84;102331.78;5058895;28;45420;-60
2023/10/05 09:21:54;;;;;;;;;4.00;3.00;;;;;26.56;37.10;102322.09;5058567;28;45296;-60
2023/10/05 09:24:21;;;;;;;;;8.25;4.75;;;;;26.65;36.85;102324.91;5058931;28;46189;-61
2023/10/05 09:26:54;;;;;;;;;4.75;3.50;;;;;26.67;36.79;102330.28;5048154;28;45466;-62
2023/10/05 09:29:21;;;;;;;;;4.00;3.00;;;;;26.74;36.54;102350.72;5045905;28;45220;-61
2023/10/05 09:31:50;;;;;;;;;2.25;2.25;;;;;26.51;36.04;102328.03;5058026;28;45283;-66
2023/10/05 09:34:19;;;;;;;;;6.25;1.50;;;;;26.54;36.37;102338.72;5056730;28;47375;-66
2023/10/05 09:36:44;;;;;;;;;0.75;0.75;;;;;26.57;36.71;102334.84;5057904;28;45239;-66
2023/10/05 09:39:14;;;;;;;;;8.25;3.00;;;;;26.63;37.13;102345.31;5058524;28;45464;-66
2023/10/05 09:41:44;;;;;;;;;3.50;2.00;;;;;26.78;36.46;102335.72;5058763;28;45350;-66
2023/10/05 09:44:11;;;;;;;;;3.00;2.50;;;;;26.89;35.66;102340.22;5058693;28;45325;-66
2023/10/05 09:46:37;;;;;;;;;4.00;2.50;;;;;26.98;35.63;102331.19;5058104;28;45351;-65
2023/10/05 09:49:05;;;;;;;;;2.00;2.00;;;;;27.02;35.48;102349.19;5058806;28;45312;-66
2023/10/05 09:51:34;;;;;;;;;4.25;2.50;;;;;27.04;35.55;102345.28;5058337;28;45227;-65
2023/10/05 09:54:01;;;;;;;;;4.00;2.75;;;;;27.21;35.58;102349.25;5058088;28;47040;-65
2023/10/05 09:56:27;;;;;;;;;1.50;1.50;;;;;27.18;34.49;102351.41;5057881;28;45373;-65
2023/10/05 09:58:53;;;;;;;;;4.25;3.75;;;;;27.18;34.69;102345.91;5058395;28;45247;-65
2023/10/05 10:01:21;;;;;;;;;2.50;2.50;;;;;27.24;34.91;102342.59;5058068;28;45495;-66
2023/10/05 10:03:51;;;;;;;;;3.00;2.00;;;;;27.25;33.75;102339.69;5058204;28;45339;-66
2023/10/05 10:06:24;;;;;;;;;6.75;3.00;;;;;27.40;34.45;102335.53;5057982;28;45504;-66
2023/10/05 10:08:53;;;;;;;;;2.00;2.00;;;;;27.46;33.76;102334.97;5058253;28;45346;-66
2023/10/05 10:11:24;;;;;;;;;2.00;2.00;;;;;27.55;34.16;102316.75;5058177;28;45337;-66
2023/10/05 10:13:59;;;;;;;;;4.75;1.25;;;;;27.62;33.76;102326.19;5058013;28;47856;-66
2023/10/05 10:16:26;;;;;;;;;2.00;1.50;;;;;27.65;32.79;102314.00;5056869;28;45250;-66
2023/10/05 10:18:53;;;;;;;;;4.75;2.75;;;;;27.79;33.29;102295.19;5056721;28;45351;-66
2023/10/05 10:21:46;;;;;;;;;11.00;5.75;;;;;27.97;32.64;102306.34;5057789;28;45467;-67
2023/10/05 10:24:17;;;;;;;;;3.00;3.00;;;;;27.94;31.96;102300.25;5058077;28;46042;-66
2023/10/05 10:26:59;;;;;;;;;2.50;2.25;;;;;28.03;33.07;102299.38;5057943;28;45455;-66
2023/10/05 10:29:42;;;;;;;;;3.25;2.00;;;;;28.06;32.29;102280.66;5059288;28;45341;-67
2023/10/05 10:32:18;;;;;;;;;2.50;2.50;;;;;28.19;32.68;102289.50;5057653;28;45514;-66
2023/10/05 10:34:50;;;;;;;;;4.00;3.00;;;;;28.23;32.50;102288.22;5060974;28;45234;-66
2023/10/05 10:37:36;;;;;;;;;2.00;2.00;;;;;28.26;32.58;102291.66;5061314;28;45587;-66
2023/10/05 10:40:11;;;;;;;;;3.00;2.50;;;;;28.27;32.46;102297.03;5061393;28;45286;-66
2023/10/05 10:45:44;;;;;;;;;1.50;0.50;;;;;28.17;31.67;102308.09;5061190;28;46006;-67
2023/10/05 10:48:20;;;;;;;;;3.00;3.00;;;;;27.97;32.73;102317.38;5057984;28;45381;-66
2023/10/05 10:50:47;;;;;;;;;5.50;4.25;;;;;28.00;32.92;102310.69;5050845;28;45396;-66
2023/10/05 10:53:16;;;;;;;;;5.00;3.25;;;;;27.99;31.90;102300.66;5060783;28;46009;-66
2023/10/05 10:55:58;;;;;;;;;4.00;4.00;;;;;28.07;32.68;102309.94;5060886;28;45425;-66
2023/10/05 10:58:30;;;;;;;;;3.00;3.00;;;;;28.05;32.22;102313.88;5060922;28;45280;-66
2023/10/05 11:00:57;;;;;;;;;3.25;3.25;;;;;28.25;32.48;102312.84;5061205;28;45315;-67
2023/10/05 11:03:27;;;;;;;;;2.75;2.75;;;;;28.52;32.14;102303.81;5060673;28;45599;-66
2023/10/05 11:05:54;;;;;;;;;4.00;2.75;;;;;28.93;31.53;102317.19;5060655;28;47142;-66
2023/10/05 11:08:20;;;;;;;;;4.00;4.00;;;;;29.48;30.96;102306.19;5060804;28;45484;-66
2023/10/05 11:11:15;;;;;;;;;4.75;2.25;;;;;30.09;30.13;102316.50;5060590;28;45290;-66
2023/10/05 11:13:45;;;;;;;;;2.75;2.75;;;;;30.67;29.76;102315.94;5051783;28;45272;-66
2023/10/05 11:16:11;;;;;;;;;3.50;3.50;;;;;31.15;28.47;102315.34;5060634;28;46330;-65
2023/10/05 11:18:57;;;;;;;;;3.75;2.00;;;;;31.52;27.49;102304.72;5060871;28;45410;-65
2023/10/05 11:21:25;;;;;;;;;1.75;1.75;;;;;32.09;26.56;102310.38;5060974;28;45310;-64
2023/10/05 11:23:56;;;;;;;;;3.25;3.25;;;;;32.48;26.01;102302.22;5060267;28;45806;-65
2023/10/05 11:26:33;;;;;;;;;5.75;2.50;;;;;32.66;26.12;102302.03;5060649;28;45413;-66
2023/10/05 11:29:14;;;;;;;;;4.00;4.00;;;;;32.59;25.55;102310.16;5060634;28;45409;-65
2023/10/05 11:31:40;;;;;;;;;4.25;2.50;;;;;32.44;25.39;102309.16;5060816;28;45270;-65
2023/10/05 11:34:09;;;;;;;;;4.00;3.75;;;;;32.83;24.83;102306.53;5060507;28;45497;-65
2023/10/05 11:36:44;;;;;;;;;1.00;1.00;;;;;33.47;24.70;102300.84;5059974;28;46326;-66
2023/10/05 11:39:22;;;;;;;;;4.50;2.75;;;;;33.90;23.89;102277.13;5059209;28;46063;-66
2023/10/05 11:41:51;;;;;;;;;3.25;3.25;;;;;34.00;23.83;102275.81;5060369;28;45400;-66
2023/10/05 11:44:23;;;;;;;;;2.00;2.00;;;;;34.51;23.42;102245.41;5060429;28;45379;-64
2023/10/05 11:46:53;;;;;;;;;1.75;1.75;;;;;35.25;22.86;102271.34;5060178;28;45359;-66
2023/10/05 11:49:20;;;;;;;;;3.00;3.00;;;;;35.67;22.43;102265.81;5049241;28;45369;-66
2023/10/05 11:51:56;;;;;;;;;3.00;3.00;;;;;35.51;21.02;102268.88;5058113;28;45351;-65
2023/10/05 11:54:30;;;;;;;;;4.00;3.00;;;;;35.78;21.69;102253.31;5060109;28;45965;-66
2023/10/05 11:56:55;;;;;;;;;7.00;3.50;;;;;36.19;21.48;102253.47;5059651;28;45936;-65
2023/10/05 11:59:28;;;;;;;;;3.00;3.00;;;;;36.27;20.92;102250.53;5056818;28;45828;-64
2023/10/05 12:01:54;;;;;;;;;2.00;2.00;;;;;36.81;19.99;102258.22;5047823;28;45485;-66
2023/10/05 12:04:20;;;;;;;;;2.50;2.50;;;;;37.72;19.64;102247.63;5058797;28;45377;-66
2023/10/05 12:06:46;;;;;;;;;6.75;3.75;;;;;38.70;18.54;102248.69;5060050;28;45369;-65
2023/10/05 12:09:27;;;;;;;;;2.50;2.50;;;;;39.70;18.67;102231.19;5059999;28;45385;-58
2023/10/05 12:11:54;;;;;;;;;1.00;1.00;;;;;40.87;17.10;102249.13;5060346;28;45334;-59
2023/10/05 12:14:20;;;;;;;;;4.50;4.00;;;;;40.73;16.58;102252.13;5059410;28;45299;-59
2023/10/05 12:16:45;;;;;;;;;2.00;2.00;;;;;40.62;16.64;102247.22;5059775;28;46339;-59
2023/10/05 12:19:13;;;;;;;;;1.75;1.75;;;;;40.63;17.16;102248.09;5059806;28;45318;-59
2023/10/05 12:21:48;;;;;;;;;2.50;2.50;;;;;41.35;16.05;102254.78;5060257;28;45362;-59
2023/10/05 12:24:13;;;;;;;;;3.00;3.00;;;;;41.32;16.40;102246.84;5059688;28;45325;-59
2023/10/05 12:26:39;;;;;;;;;2.00;2.00;;;;;41.51;16.01;102229.69;5059325;28;45239;-59
2023/10/05 12:29:12;;;;;;;;;5.67;3.00;;;;;42.06;16.13;102234.22;5059862;28;45295;-59
2023/10/05 12:31:41;;;;;;;;;3.00;3.00;;;;;41.86;15.05;102238.22;5059607;28;45343;-59
2023/10/05 12:34:14;;;;;;;;;2.00;2.00;;;;;42.24;15.03;102234.97;5059700;28;45348;-58
2023/10/05 12:36:50;;;;;;;;;2.25;2.25;;;;;42.94;15.33;102246.25;5059484;28;47205;-59
2023/10/05 12:39:17;;;;;;;;;1.00;1.00;;;;;42.90;14.69;102230.03;5058654;28;45282;-58
2023/10/05 12:41:46;;;;;;;;;4.00;3.75;;;;;42.89;15.02;102234.81;5058732;28;45375;-58
2023/10/05 12:44:15;;;;;;;;;3.50;3.50;;;;;43.14;14.70;102242.09;5059697;28;45511;-59
2023/10/05 12:46:42;;;;;;;;;2.00;2.00;;;;;43.21;14.96;102225.94;5059058;28;45358;-59
2023/10/05 12:49:11;;;;;;;;;5.25;3.50;;;;;43.14;14.50;102233.63;5050267;28;45417;-59
2023/10/05 12:51:38;;;;;;;;;2.75;2.25;;;;;42.60;15.14;102228.25;5055705;28;45359;-58
2023/10/05 12:54:18;;;;;;;;;6.00;3.00;;;;;41.88;15.77;102233.19;5058603;28;45492;-60
2023/10/05 12:56:44;;;;;;;;;3.75;3.50;;;;;41.18;16.03;102244.19;5057226;28;45379;-59
2023/10/05 12:59:09;;;;;;;;;3.00;2.25;;;;;40.73;16.53;102238.06;5059168;28;45402;-59
2023/10/05 13:01:35;;;;;;;;;3.00;3.00;;;;;40.23;16.88;102236.38;5055071;28;53688;-59
2023/10/05 13:04:05;;;;;;;;;2.00;2.00;;;;;39.74;16.97;102246.47;5059322;28;45446;-58
2023/10/05 13:06:32;;;;;;;;;4.25;3.00;;;;;39.69;17.00;102235.06;5059097;28;45350;-58
2023/10/05 13:09:01;;;;;;;;;4.00;2.25;;;;;39.87;16.67;102232.38;5058955;28;45490;-59
2023/10/05 13:11:29;;;;;;;;;2.00;2.00;;;;;39.41;17.35;102231.81;5059379;28;45371;-58
2023/10/05 13:13:55;;;;;;;;;3.00;2.75;;;;;38.78;17.70;102238.09;5059069;28;45412;-58
2023/10/05 13:16:21;;;;;;;;;2.75;2.75;;;;;38.28;17.72;102236.03;5058647;28;46229;-59
2023/10/05 13:18:50;;;;;;;;;4.75;3.00;;;;;37.75;18.10;102224.81;5058520;28;45403;-59
2023/10/05 13:21:16;;;;;;;;;6.00;1.75;;;;;37.52;18.47;102229.91;5056092;28;45336;-58
2023/10/05 13:23:42;;;;;;;;;2.25;2.00;;;;;37.00;18.79;102240.69;5050621;28;45728;-59
2023/10/05 13:26:07;;;;;;;;;3.25;2.00;;;;;36.56;19.60;102240.22;5058523;28;45338;-58
2023/10/05 13:28:33;;;;;;;;;2.75;2.75;;;;;36.26;19.61;102232.03;5059084;28;45297;-58
2023/10/05 13:31:05;;;;;;;;;3.00;3.00;;;;;35.79;20.00;102231.84;5059177;28;45323;-58
2023/10/05 13:33:34;;;;;;;;;4.00;2.00;;;;;35.31;20.02;102231.50;5058738;28;45362;-58
2023/10/05 13:36:04;;;;;;;;;3.75;3.00;;;;;34.97;21.14;102248.00;5057942;28;45348;-58
2023/10/05 13:38:32;;;;;;;;;1.75;1.75;;;;;34.78;20.89;102242.00;5057993;28;45456;-58
2023/10/05 13:41:06;;;;;;;;;2.00;2.00;;;;;34.21;20.80;102229.69;5059007;28;45330;-58
2023/10/05 13:43:34;;;;;;;;;2.00;2.00;;;;;33.42;21.31;102218.88;5058636;28;45978;-58
2023/10/05 13:46:19;;;;;;;;;1.25;1.25;;;;;33.05;21.30;102218.72;5058656;28;46154;-58
2023/10/05 13:48:48;;;;;;;;;2.00;2.00;;;;;33.27;21.37;102219.81;5051456;28;45339;-59
2023/10/05 13:51:15;;;;;;;;;6.75;4.25;;;;;33.76;21.35;102212.91;5057976;28;45408;-59
2023/10/05 13:53:46;;;;;;;;;2.50;2.50;;;;;34.15;21.04;102209.03;5058389;28;45347;-60
2023/10/05 13:56:12;;;;;;;;;2.00;2.00;;;;;34.60;21.21;102187.69;5058064;28;46255;-58
2023/10/05 13:58:44;;;;;;;;;1.00;1.00;;;;;35.03;20.59;102199.84;5058577;28;45373;-58
2023/10/05 14:01:15;;;;;;;;;2.50;2.50;;;;;35.34;20.09;102196.78;5058418;28;45227;-59
2023/10/05 14:03:42;;;;;;;;;3.00;2.75;;;;;35.67;20.02;102196.06;5051313;28;45361;-59
2023/10/05 14:06:09;;;;;;;;;2.00;2.00;;;;;35.65;19.03;102187.00;5058179;28;47162;-59
2023/10/05 14:08:35;;;;;;;;;2.25;2.25;;;;;35.86;19.34;102188.09;5060373;28;53574;-59
2023/10/05 14:11:01;;;;;;;;;2.50;1.25;;;;;36.03;19.17;102187.59;5061843;28;45269;-59
2023/10/05 14:13:27;;;;;;;;;6.00;2.25;;;;;36.25;18.93;102181.97;5061943;28;45918;-59
2023/10/05 14:15:53;;;;;;;;;4.00;2.00;;;;;36.74;18.96;102171.56;5061591;28;45355;-59
2023/10/05 14:18:18;;;;;;;;;0.00;0.00;;;;;37.31;18.74;102174.97;5061715;28;45379;-58
2023/10/05 14:20:50;;;;;;;;;2.00;0.75;;;;;37.91;17.55;102167.50;5060420;28;45546;-58
2023/10/05 14:23:18;;;;;;;;;2.00;2.00;;;;;38.21;17.52;102180.00;5061455;28;45452;-59
2023/10/05 14:25:44;;;;;;;;;2.50;2.50;;;;;38.51;17.51;102175.66;5061534;28;47355;-59
2023/10/05 14:28:14;;;;;;;;;2.00;1.50;;;;;38.59;17.60;102177.34;5061658;28;45357;-59
2023/10/05 14:30:40;;;;;;;;;2.00;2.00;;;;;38.62;17.62;102176.91;5061716;28;45385;-59
2023/10/05 14:33:05;;;;;;;;;3.75;3.75;;;;;38.47;17.58;102174.31;5060227;28;45432;-59
2023/10/05 14:35:31;;;;;;;;;2.75;2.75;;;;;38.05;17.12;102166.41;5061264;28;47032;-59
2023/10/05 14:37:58;;;;;;;;;5.00;3.25;;;;;37.55;17.96;102170.69;5060866;28;45346;-59
2023/10/05 14:40:24;;;;;;;;;3.50;1.75;;;;;37.17;19.21;102173.22;5060979;28;45488;-59
2023/10/05 14:42:53;;;;;;;;;4.00;3.00;;;;;37.08;19.31;102165.00;5050491;28;45500;-59
2023/10/05 14:45:24;;;;;;;;;3.75;3.75;;;;;37.13;19.19;102170.84;5059777;28;46404;-59
2023/10/05 14:47:51;;;;;;;;;5.25;2.00;;;;;37.02;18.96;102164.97;5060857;28;45329;-58
2023/10/05 14:50:17;;;;;;;;;1.75;1.75;;;;;36.73;19.34;102174.56;5047446;28;45176;-59
2023/10/05 14:52:44;;;;;;;;;2.00;2.00;;;;;36.42;20.20;102177.78;5061166;28;45534;-59
2023/10/05 14:55:10;;;;;;;;;2.25;1.00;;;;;36.39;20.30;102176.28;5060997;28;45351;-59
2023/10/05 14:57:37;;;;;;;;;3.00;3.00;;;;;36.23;20.02;102170.16;5061084;28;45318;-59
2023/10/05 15:00:07;;;;;;;;;2.00;2.00;;;;;36.10;20.18;102168.09;5060704;28;45329;-58
2023/10/05 15:02:33;;;;;;;;;3.25;3.25;;;;;36.22;20.60;102168.44;5060927;28;45453;-60
2023/10/05 15:05:00;;;;;;;;;4.50;3.25;;;;;36.02;21.10;102168.25;5061018;28;45324;-59
2023/10/05 15:07:25;;;;;;;;;5.50;3.50;;;;;36.01;21.19;102170.19;5061183;28;45431;-59
2023/10/05 15:09:53;;;;;;;;;9.50;7.00;;;;;35.93;20.79;102161.97;5061088;28;45367;-58
2023/10/05 15:12:19;;;;;;;;;5.00;5.00;;;;;35.83;20.15;102157.78;5060781;28;45524;-58
2023/10/05 15:14:44;;;;;;;;;6.25;3.25;;;;;35.65;20.80;102155.47;5061064;28;46149;-59
2023/10/05 15:17:09;;;;;;;;;3.50;2.75;;;;;35.60;20.92;102155.22;5060145;28;57353;-59
2023/10/05 15:19:34;;;;;;;;;3.50;3.50;;;;;35.42;21.37;102138.94;5060493;28;45244;-59
2023/10/05 15:22:00;;;;;;;;;2.50;2.50;;;;;35.39;21.31;102150.50;5060415;28;46051;-59
2023/10/05 15:24:25;;;;;;;;;5.75;3.00;;;;;35.26;20.98;102153.16;5058367;28;51811;-59
2023/10/05 15:26:50;;;;;;;;;4.00;3.00;;;;;35.05;21.63;102148.38;5060410;28;45368;-58
2023/10/05 15:29:16;;;;;;;;;3.50;2.25;;;;;34.91;21.67;102157.66;5061001;28;45383;-58
2023/10/05 15:31:42;;;;;;;;;4.00;4.00;;;;;34.52;21.22;102160.78;5059553;28;45272;-59
2023/10/05 15:34:07;;;;;;;;;4.75;4.75;;;;;34.16;21.98;102161.53;5060561;28;45309;-58
2023/10/05 15:36:33;;;;;;;;;4.00;3.50;;;;;33.63;22.10;102156.97;5060251;28;45598;-58
2023/10/05 15:38:59;;;;;;;;;4.00;2.25;;;;;33.06;22.36;102112.06;5060491;28;45590;-60
2023/10/05 15:43:57;;;;;;;;;2.25;2.25;;;;;33.42;23.01;102156.81;5062720;28;46490;-60
2023/10/05 15:46:22;;;;;;;;;1.75;1.75;;;;;33.60;23.04;102156.50;5077367;28;45387;-59
2023/10/05 15:48:48;;;;;;;;;3.00;3.00;;;;;33.78;22.85;102155.13;5069708;28;45397;-60
2023/10/05 15:51:14;;;;;;;;;3.00;3.00;;;;;33.80;22.85;102143.81;5064425;28;60233;-59
2023/10/05 15:53:39;;;;;;;;;4.25;4.25;;;;;33.77;22.43;102144.22;5080391;28;46333;-58
2023/10/05 15:56:08;;;;;;;;;5.75;3.00;;;;;33.63;22.88;102136.63;5080201;28;45387;-59
2023/10/05 15:58:34;;;;;;;;;2.75;2.75;;;;;33.52;23.21;102149.06;5080234;28;45368;-58
2023/10/05 16:00:59;;;;;;;;;4.75;3.75;;;;;33.44;23.40;102144.44;5060112;28;45463;-59
2023/10/05 16:03:25;;;;;;;;;3.50;3.25;;;;;33.20;23.23;102139.06;5060371;28;45775;-58
2023/10/05 16:05:51;;;;;;;;;5.50;2.75;;;;;33.10;23.06;102134.78;5059675;28;45394;-58
2023/10/05 16:08:19;;;;;;;;;3.75;2.75;;;;;32.88;23.78;102136.50;5060740;28;45314;-57
2023/10/05 16:10:45;;;;;;;;;1.75;1.75;;;;;32.71;24.02;102132.94;5059944;28;45952;-58
2023/10/05 16:13:11;;;;;;;;;6.00;5.00;;;;;32.46;24.21;102136.84;5059677;28;45342;-59
2023/10/05 16:15:40;;;;;;;;;3.25;2.00;;;;;32.27;23.96;102136.22;5060791;28;45231;-59
2023/10/05 16:18:07;;;;;;;;;4.00;1.75;;;;;32.02;24.45;102136.44;5060312;28;45378;-59
2023/10/05 16:20:36;;;;;;;;;4.00;2.25;;;;;31.90;24.67;102136.78;5059779;28;45508;-58
2023/10/05 16:23:04;;;;;;;;;3.00;3.00;;;;;31.72;24.82;102129.75;5059741;28;46323;-59
2023/10/05 16:25:30;;;;;;;;;4.50;2.25;;;;;31.69;25.20;102142.03;5059716;28;45363;-59
2023/10/05 16:27:57;;;;;;;;;2.25;2.25;;;;;31.59;25.12;102135.78;5059915;28;45467;-60
2023/10/05 16:30:22;;;;;;;;;5.00;3.25;;;;;31.32;25.09;102141.66;5058721;28;45338;-58
2023/10/05 16:32:54;;;;;;;;;2.75;2.75;;;;;31.18;25.63;102137.66;5059826;28;45223;-58
2023/10/05 16:35:20;;;;;;;;;4.75;2.75;;;;;31.11;25.64;102137.50;5058881;28;45312;-59
2023/10/05 16:37:48;;;;;;;;;4.75;4.75;;;;;30.89;26.38;102117.84;5063131;28;45484;-58
2023/10/05 16:40:14;;;;;;;;;4.25;4.25;;;;;30.92;26.32;102131.34;5058974;28;45442;-58
2023/10/05 16:42:41;;;;;;;;;4.00;4.00;;;;;30.84;26.44;102123.91;5064024;28;45831;-59
2023/10/05 16:45:07;;;;;;;;;4.50;3.00;;;;;30.70;26.04;102130.97;5077058;28;45174;-59
2023/10/05 16:47:32;;;;;;;;;5.00;3.00;;;;;30.55;26.77;102128.97;5057750;28;45441;-58
2023/10/05 16:49:58;;;;;;;;;6.50;3.25;;;;;30.29;26.97;102123.47;5062239;28;45481;-59
2023/10/05 16:52:24;;;;;;;;;3.50;3.50;;;;;30.23;26.97;102132.44;5070268;28;46314;-58
2023/10/05 16:54:50;;;;;;;;;4.00;3.00;;;;;30.20;26.77;102121.72;5059529;28;45481;-59
2023/10/05 16:57:15;;;;;;;;;4.50;3.50;;;;;30.17;27.66;102131.22;5069233;28;45307;-60
2023/10/05 16:59:41;;;;;;;;;5.75;4.00;;;;;30.15;27.35;102132.41;5061668;28;45587;-58
2023/10/05 17:02:08;;;;;;;;;9.00;4.00;;;;;30.02;27.44;102141.16;5076481;28;46351;-59
2023/10/05 17:04:33;;;;;;;;;5.50;4.25;;;;;29.90;28.09;102135.00;5076688;28;45446;-54
2023/10/05 17:06:59;;;;;;;;;4.50;4.50;;;;;29.73;28.01;102133.13;5080077;28;45508;-57
2023/10/05 17:09:26;;;;;;;;;4.75;4.75;;;;;29.70;28.05;102141.75;5079044;28;46386;-57
2023/10/05 17:11:52;;;;;;;;;4.50;4.50;;;;;29.60;28.53;102147.38;5079443;28;46145;-59
2023/10/05 17:14:17;;;;;;;;;4.50;3.00;;;;;29.56;28.46;102145.09;5079413;28;45436;-58
2023/10/05 17:16:42;;;;;;;;;4.00;4.00;;;;;29.40;27.80;102137.53;5073557;28;45465;-58
2023/10/05 17:19:08;;;;;;;;;5.50;5.50;;;;;29.31;28.33;102144.84;5075138;28;57789;-58
2023/10/05 17:21:33;;;;;;;;;5.75;4.00;;;;;29.28;28.28;102149.81;5079363;28;45314;-58
2023/10/05 17:23:58;;;;;;;;;5.25;3.50;;;;;29.26;28.74;102147.22;5078643;28;45382;-57
2023/10/05 17:26:24;;;;;;;;;4.00;2.75;;;;;29.20;29.31;102155.25;5079193;28;45804;-59
2023/10/05 17:28:49;;;;;;;;;5.50;5.50;;;;;29.13;28.91;102157.78;5078938;28;45337;-57
2023/10/05 17:31:16;;;;;;;;;7.25;6.00;;;;;29.12;28.90;102161.56;5075086;28;46922;-57
2023/10/05 17:33:41;;;;;;;;;4.00;3.50;;;;;28.97;28.98;102165.91;5075542;28;45477;-58